Time;durP1;ratioP1;P1;durP2;ratioP2;P2;SDS_P1;SDS_P2;PMS_P1;PMS_P2;Temp;Humidity;BMP_temperature;BMP_pressure;BME280_temperature;BME280_humidity;BME280_pressure;Samples;Min_cycle;Max_cycle;Signal;HPM_P1;HPM_P2
2021/10/29 00:00:00;;;;;;;15.05;7.47;;;11.10;96.30;;;;;;5011930;28;20014;-75
2021/10/29 00:02:27;;;;;;;12.50;6.35;;;11.10;96.40;;;;;;5012822;28;20473;-75
2021/10/29 00:04:54;;;;;;;11.48;6.90;;;11.10;96.40;;;;;;5010396;28;20026;-75
2021/10/29 00:07:20;;;;;;;11.55;6.38;;;11.00;96.40;;;;;;5012680;28;20025;-75
2021/10/29 00:09:46;;;;;;;13.90;6.78;;;11.00;96.30;;;;;;5012062;28;20022;-75
2021/10/29 00:12:13;;;;;;;11.05;6.25;;;11.00;96.40;;;;;;5027753;28;20374;-75
2021/10/29 00:14:41;;;;;;;13.65;6.30;;;11.00;96.40;;;;;;5011727;28;20319;-76
2021/10/29 00:17:06;;;;;;;12.70;6.53;;;11.00;96.30;;;;;;5011265;28;20477;-75
2021/10/29 00:19:32;;;;;;;11.82;6.38;;;11.00;96.30;;;;;;5012558;28;20026;-75
2021/10/29 00:27:21;;;;;;;14.23;6.75;;;11.00;96.30;;;;;;5394728;22;20407;-74
2021/10/29 00:29:46;;;;;;;12.75;6.35;;;11.00;96.30;;;;;;5010612;28;20120;-76
2021/10/29 00:32:12;;;;;;;16.77;7.55;;;11.00;96.30;;;;;;5013058;28;20045;-76
2021/10/29 00:34:38;;;;;;;11.43;6.68;;;11.00;96.30;;;;;;5013401;28;20074;-76
2021/10/29 00:37:03;;;;;;;13.57;6.20;;;11.00;96.30;;;;;;5013285;28;20436;-76
2021/10/29 00:39:29;;;;;;;11.88;6.53;;;11.00;96.30;;;;;;5013351;28;20072;-76
2021/10/29 00:41:55;;;;;;;10.65;5.95;;;11.00;96.30;;;;;;5013311;28;20033;-76
2021/10/29 00:44:24;;;;;;;10.57;6.32;;;10.90;96.30;;;;;;5013475;28;20029;-76
2021/10/29 00:46:51;;;;;;;9.88;5.72;;;11.00;96.30;;;;;;5013300;28;20458;-77
2021/10/29 00:49:17;;;;;;;10.75;5.80;;;10.90;96.30;;;;;;5013348;28;20026;-77
2021/10/29 00:51:43;;;;;;;12.15;6.35;;;10.90;96.30;;;;;;5012965;28;20025;-77
2021/10/29 00:54:10;;;;;;;11.02;6.05;;;10.90;96.30;;;;;;5012140;28;20553;-76
2021/10/29 00:56:36;;;;;;;11.73;6.65;;;10.90;96.30;;;;;;5013239;28;20141;-76
2021/10/29 00:59:02;;;;;;;10.68;5.93;;;10.90;96.30;;;;;;5011659;28;20058;-75
2021/10/29 01:01:27;;;;;;;12.18;5.60;;;10.90;96.20;;;;;;5014977;28;20022;-75
2021/10/29 01:03:53;;;;;;;12.77;5.97;;;10.80;96.20;;;;;;5017511;28;20036;-76
2021/10/29 01:06:19;;;;;;;12.60;5.70;;;10.80;96.20;;;;;;5016602;28;20040;-75
2021/10/29 01:08:44;;;;;;;11.00;6.22;;;10.80;96.30;;;;;;5016941;28;20106;-75
2021/10/29 01:11:14;;;;;;;15.30;6.90;;;10.80;96.30;;;;;;5017568;28;20038;-75
2021/10/29 01:13:47;;;;;;;11.40;5.65;;;10.80;96.30;;;;;;5017087;28;20029;-75
2021/10/29 01:16:14;;;;;;;11.82;5.47;;;10.80;96.20;;;;;;5016952;28;20045;-75
2021/10/29 01:18:39;;;;;;;12.60;6.95;;;10.80;96.30;;;;;;5015524;28;20026;-76
2021/10/29 01:21:05;;;;;;;12.40;6.03;;;10.80;96.30;;;;;;5016081;28;20017;-75
2021/10/29 01:23:33;;;;;;;11.68;6.05;;;10.80;96.20;;;;;;5017031;28;20025;-75
2021/10/29 01:26:11;;;;;;;11.18;6.25;;;10.80;96.20;;;;;;5016623;28;20034;-76
2021/10/29 01:28:37;;;;;;;13.25;6.03;;;10.80;96.50;;;;;;5015012;28;20041;-76
2021/10/29 01:31:03;;;;;;;11.63;6.28;;;10.80;96.20;;;;;;5015393;28;20025;-75
2021/10/29 01:33:29;;;;;;;10.65;5.85;;;10.70;96.20;;;;;;5016540;28;20113;-76
2021/10/29 01:35:56;;;;;;;12.15;6.45;;;10.70;96.20;;;;;;5015367;28;20072;-76
2021/10/29 01:38:23;;;;;;;14.02;6.28;;;10.70;96.20;;;;;;5015106;28;20155;-75
2021/10/29 01:40:48;;;;;;;11.85;5.93;;;10.70;96.20;;;;;;5016826;28;20068;-75
2021/10/29 01:43:14;;;;;;;12.77;6.43;;;10.70;96.20;;;;;;5016035;28;20030;-75
2021/10/29 01:45:41;;;;;;;12.15;5.63;;;10.70;96.50;;;;;;5014958;28;20042;-76
2021/10/29 01:48:07;;;;;;;13.63;6.32;;;10.60;96.10;;;;;;5016388;28;20026;-75
2021/10/29 01:50:33;;;;;;;11.27;5.97;;;10.70;96.20;;;;;;5016733;28;20370;-75
2021/10/29 01:52:58;;;;;;;12.07;6.68;;;10.60;96.20;;;;;;5015785;28;20048;-75
2021/10/29 01:55:24;;;;;;;12.68;6.80;;;10.60;96.20;;;;;;5016342;28;20381;-75
2021/10/29 01:57:50;;;;;;;11.27;6.15;;;10.60;96.20;;;;;;5016260;28;20026;-75
2021/10/29 02:00:16;;;;;;;12.00;6.45;;;10.60;96.20;;;;;;5015678;28;20030;-76
2021/10/29 02:02:42;;;;;;;10.68;5.35;;;10.60;96.20;;;;;;5016272;28;20071;-75
2021/10/29 02:05:09;;;;;;;12.38;6.05;;;10.60;96.20;;;;;;5014418;28;20030;-75
2021/10/29 02:07:35;;;;;;;10.02;5.93;;;10.60;96.20;;;;;;5015879;28;20073;-75
2021/10/29 02:10:01;;;;;;;10.10;5.50;;;10.50;96.20;;;;;;5015837;28;20461;-75
2021/10/29 02:12:26;;;;;;;11.95;5.63;;;10.50;96.20;;;;;;5013635;28;20036;-76
2021/10/29 02:14:53;;;;;;;10.57;5.78;;;10.50;96.20;;;;;;5014687;28;20018;-75
2021/10/29 02:17:22;;;;;;;11.75;5.85;;;10.50;96.20;;;;;;5015678;28;20025;-76
2021/10/29 02:19:48;;;;;;;13.15;5.65;;;10.50;96.20;;;;;;5015392;28;20022;-77
2021/10/29 02:22:14;;;;;;;10.63;5.45;;;10.50;96.20;;;;;;5015278;28;20045;-76
2021/10/29 02:24:39;;;;;;;14.30;6.55;;;10.50;96.20;;;;;;5015921;28;20018;-76
2021/10/29 02:27:05;;;;;;;11.07;5.63;;;10.50;96.20;;;;;;5015518;28;20052;-77
2021/10/29 02:29:31;;;;;;;12.90;5.88;;;10.50;96.20;;;;;;5014111;28;20037;-76
2021/10/29 02:31:57;;;;;;;9.98;5.15;;;10.50;96.20;;;;;;5014311;28;20369;-76
2021/10/29 02:34:23;;;;;;;11.57;6.28;;;10.60;96.20;;;;;;5015328;28;20032;-76
2021/10/29 02:36:49;;;;;;;11.75;5.78;;;10.50;96.20;;;;;;5015305;28;20108;-76
2021/10/29 02:39:14;;;;;;;8.63;5.00;;;10.50;96.20;;;;;;5015667;28;20030;-76
2021/10/29 02:41:40;;;;;;;9.95;5.32;;;10.60;96.20;;;;;;5015696;28;20026;-76
2021/10/29 02:44:06;;;;;;;13.32;5.55;;;10.60;96.20;;;;;;5013784;28;20026;-76
2021/10/29 02:46:31;;;;;;;9.82;5.25;;;10.60;96.20;;;;;;5015056;28;20124;-76
2021/10/29 02:48:57;;;;;;;10.15;5.50;;;10.60;96.20;;;;;;5015099;28;20029;-76
2021/10/29 02:51:25;;;;;;;10.85;5.40;;;10.60;96.20;;;;;;5015177;28;20496;-77
2021/10/29 02:53:51;;;;;;;11.13;5.68;;;10.50;96.20;;;;;;5013623;28;20381;-75
2021/10/29 02:56:16;;;;;;;12.32;5.95;;;10.50;96.20;;;;;;5015179;28;20461;-75
2021/10/29 02:58:42;;;;;;;9.57;5.07;;;10.50;96.20;;;;;;5015655;28;20030;-75
2021/10/29 03:01:08;;;;;;;9.27;5.78;;;10.50;96.20;;;;;;5015660;28;20077;-75
2021/10/29 03:03:33;;;;;;;10.27;5.18;;;10.50;96.20;;;;;;5014676;28;20032;-74
2021/10/29 03:05:59;;;;;;;9.70;5.00;;;10.50;96.20;;;;;;5014649;28;20428;-74
2021/10/29 03:08:25;;;;;;;9.90;5.15;;;10.50;96.20;;;;;;5014569;28;20132;-74
2021/10/29 03:10:51;;;;;;;10.70;5.70;;;10.50;96.20;;;;;;5014708;28;20026;-77
2021/10/29 03:13:17;;;;;;;11.68;6.15;;;10.50;96.30;;;;;;5013284;28;20033;-73
2021/10/29 03:15:44;;;;;;;9.60;5.70;;;10.40;96.20;;;;;;5014525;28;20101;-75
2021/10/29 03:18:10;;;;;;;9.95;4.95;;;10.40;96.20;;;;;;5015029;28;20065;-75
2021/10/29 03:20:35;;;;;;;9.50;4.93;;;10.40;96.20;;;;;;5013364;28;20046;-75
2021/10/29 03:23:01;;;;;;;14.77;6.15;;;10.40;96.30;;;;;;5012709;28;20076;-75
2021/10/29 03:25:26;;;;;;;9.60;4.72;;;10.40;96.20;;;;;;5012454;28;20030;-76
2021/10/29 03:27:52;;;;;;;13.52;5.72;;;10.40;96.30;;;;;;5014599;28;20046;-75
2021/10/29 03:30:19;;;;;;;8.85;5.28;;;10.40;96.30;;;;;;5014452;28;20385;-75
2021/10/29 03:32:45;;;;;;;10.15;5.13;;;10.40;96.30;;;;;;5014236;28;20071;-75
2021/10/29 03:35:10;;;;;;;10.52;5.47;;;10.40;96.30;;;;;;5013435;28;20447;-75
2021/10/29 03:40:21;;;;;;;10.50;5.55;;;10.40;96.30;;;;;;5014153;28;20092;-75
2021/10/29 03:45:27;;;;;;;11.10;5.53;;;10.40;96.30;;;;;;5014159;28;20085;-77
2021/10/29 03:47:57;;;;;;;10.02;5.80;;;10.40;96.20;;;;;;5013955;28;20033;-77
2021/10/29 03:50:25;;;;;;;11.68;4.75;;;10.40;96.30;;;;;;5014056;28;20161;-76
2021/10/29 03:52:57;;;;;;;9.45;4.95;;;10.40;96.20;;;;;;5014396;28;20080;-77
2021/10/29 03:55:31;;;;;;;;;;;10.40;96.30;;;;;;5014223;28;20030;-76
2021/10/29 03:57:57;;;;;;;8.20;4.40;;;10.40;96.30;;;;;;5013885;28;19913;-76
2021/10/29 04:00:28;;;;;;;10.80;5.22;;;10.40;96.20;;;;;;5014406;28;20397;-76
2021/10/29 04:03:00;;;;;;;10.45;5.70;;;10.40;96.20;;;;;;5013704;28;20022;-76
2021/10/29 04:05:27;;;;;;;8.52;4.65;;;10.40;96.30;;;;;;5012487;28;20371;-75
2021/10/29 04:07:53;;;;;;;8.35;4.70;;;10.40;96.30;;;;;;5013988;28;20026;-75
2021/10/29 04:10:19;;;;;;;10.00;4.85;;;10.40;96.30;;;;;;5013749;28;20036;-75
2021/10/29 04:12:45;;;;;;;11.45;5.30;;;10.40;96.20;;;;;;5014114;28;20410;-75
2021/10/29 04:15:11;;;;;;;9.93;5.35;;;10.40;96.20;;;;;;5013597;28;20080;-76
2021/10/29 04:17:36;;;;;;;11.05;5.47;;;10.40;96.20;;;;;;5012272;28;20064;-75
2021/10/29 04:20:03;;;;;;;13.07;5.30;;;10.40;96.20;;;;;;5013459;28;20491;-75
2021/10/29 04:22:28;;;;;;;7.45;4.32;;;10.40;96.20;;;;;;5013553;28;20072;-75
2021/10/29 04:24:54;;;;;;;10.95;4.70;;;10.40;96.20;;;;;;5013023;28;20333;-75
2021/10/29 04:27:22;;;;;;;10.00;4.97;;;10.40;96.30;;;;;;5012891;28;20041;-75
2021/10/29 04:29:50;;;;;;;12.10;5.70;;;10.30;96.30;;;;;;5013472;28;20110;-76
2021/10/29 04:32:16;;;;;;;10.88;5.13;;;10.30;96.30;;;;;;5013378;28;20108;-75
2021/10/29 04:34:42;;;;;;;11.75;5.10;;;10.30;96.30;;;;;;5013066;28;20079;-75
2021/10/29 04:37:08;;;;;;;10.40;5.07;;;10.30;96.30;;;;;;5013406;28;20104;-75
2021/10/29 04:39:34;;;;;;;10.48;5.55;;;10.40;96.40;;;;;;5012467;28;20030;-74
2021/10/29 04:41:59;;;;;;;8.00;4.15;;;10.40;96.40;;;;;;5013059;28;20018;-75
2021/10/29 04:44:25;;;;;;;11.70;5.40;;;10.30;96.30;;;;;;5012604;28;20018;-75
2021/10/29 04:46:52;;;;;;;6.88;4.38;;;10.40;96.40;;;;;;5011488;28;20044;-74
2021/10/29 04:49:18;;;;;;;9.02;4.85;;;10.40;96.40;;;;;;5012680;28;20106;-76
2021/10/29 04:51:44;;;;;;;9.55;4.40;;;10.40;96.40;;;;;;5011845;28;20432;-75
2021/10/29 04:54:09;;;;;;;9.73;5.28;;;10.30;96.30;;;;;;5012823;28;20466;-76
2021/10/29 04:56:36;;;;;;;9.63;5.10;;;10.40;96.40;;;;;;5012651;28;20034;-76
2021/10/29 04:59:01;;;;;;;8.77;4.85;;;10.30;96.30;;;;;;5011602;28;20088;-75
2021/10/29 05:01:27;;;;;;;8.35;4.80;;;10.40;96.40;;;;;;5012688;28;20446;-74
2021/10/29 05:03:53;;;;;;;8.45;4.65;;;10.40;96.40;;;;;;5011336;28;20034;-74
2021/10/29 05:06:18;;;;;;;9.07;4.43;;;10.40;96.40;;;;;;5011377;28;20037;-75
2021/10/29 05:08:44;;;;;;;8.05;4.63;;;10.30;96.30;;;;;;5011944;28;20108;-74
2021/10/29 05:11:10;;;;;;;9.27;4.97;;;10.30;96.30;;;;;;5011380;28;20029;-74
2021/10/29 05:13:35;;;;;;;10.75;4.97;;;10.30;96.30;;;;;;5012544;28;20504;-73
2021/10/29 05:16:01;;;;;;;10.52;5.32;;;10.30;96.30;;;;;;5011626;28;20057;-76
2021/10/29 05:18:27;;;;;;;7.80;4.63;;;10.30;96.30;;;;;;5012764;28;20469;-76
2021/10/29 05:20:53;;;;;;;8.00;4.72;;;10.30;96.30;;;;;;5011775;28;20062;-74
2021/10/29 05:23:19;;;;;;;8.52;4.50;;;10.30;96.30;;;;;;5012856;28;20026;-75
2021/10/29 05:25:45;;;;;;;10.68;4.82;;;10.30;96.30;;;;;;5011385;28;20037;-75
2021/10/29 05:28:10;;;;;;;9.88;4.85;;;10.30;96.30;;;;;;5012426;28;20042;-75
2021/10/29 05:30:37;;;;;;;8.75;4.93;;;10.30;96.30;;;;;;5012981;28;20034;-75
2021/10/29 05:33:03;;;;;;;11.40;4.88;;;10.30;96.30;;;;;;5011536;28;20024;-76
2021/10/29 05:35:30;;;;;;;9.68;5.15;;;10.40;96.40;;;;;;5011622;28;20029;-76
2021/10/29 05:37:55;;;;;;;8.43;4.63;;;10.40;96.40;;;;;;5012554;28;20057;-76
2021/10/29 05:40:21;;;;;;;9.07;4.70;;;10.40;96.40;;;;;;5011611;28;20049;-76
2021/10/29 05:42:47;;;;;;;11.57;5.43;;;10.40;96.40;;;;;;5012965;28;20351;-76
2021/10/29 05:45:13;;;;;;;9.25;5.15;;;10.40;96.40;;;;;;5012569;28;20029;-76
2021/10/29 05:47:40;;;;;;;12.32;5.18;;;10.40;96.40;;;;;;5014072;28;20049;-76
2021/10/29 05:50:09;;;;;;;13.05;4.80;;;10.40;96.40;;;;;;5016650;28;20026;-76
2021/10/29 05:52:40;;;;;;;8.45;4.65;;;10.40;96.40;;;;;;5014715;28;20025;-76
2021/10/29 05:55:14;;;;;;;7.55;4.38;;;10.40;96.40;;;;;;5016635;28;20408;-76
2021/10/29 05:57:51;;;;;;;10.05;5.30;;;10.40;96.40;;;;;;5015510;28;20018;-77
2021/10/29 06:00:23;;;;;;;7.63;4.35;;;10.40;96.50;;;;;;5016800;28;20026;-74
2021/10/29 06:02:49;;;;;;;9.15;4.85;;;10.30;96.40;;;;;;5015953;28;20025;-76
2021/10/29 06:05:16;;;;;;;9.88;4.53;;;10.40;96.50;;;;;;5014545;28;20435;-76
2021/10/29 06:07:42;;;;;;;12.18;5.72;;;10.30;96.50;;;;;;5014462;28;20018;-77
2021/10/29 06:10:10;;;;;;;12.55;5.63;;;10.40;96.50;;;;;;5015990;28;20029;-77
2021/10/29 06:12:38;;;;;;;7.85;5.07;;;10.40;96.50;;;;;;5015724;28;20014;-76
2021/10/29 06:15:06;;;;;;;11.48;4.85;;;10.40;96.50;;;;;;5014430;28;20030;-76
2021/10/29 06:17:33;;;;;;;8.73;4.90;;;10.40;96.50;;;;;;5015670;28;20018;-76
2021/10/29 06:19:59;;;;;;;11.23;5.63;;;10.40;96.50;;;;;;5015674;28;20018;-76
2021/10/29 06:22:31;;;;;;;10.90;4.97;;;10.40;96.50;;;;;;5015145;28;20030;-76
2021/10/29 06:24:59;;;;;;;9.98;5.15;;;10.40;96.50;;;;;;5014451;28;20041;-76
2021/10/29 06:29:51;;;;;;;9.20;5.13;;;10.40;96.50;;;;;;5015934;28;20488;-76
2021/10/29 06:32:19;;;;;;;8.43;4.88;;;10.40;96.50;;;;;;5015139;28;20433;-76
2021/10/29 06:34:45;;;;;;;9.52;5.60;;;10.40;96.50;;;;;;5015340;28;20018;-76
2021/10/29 06:37:15;;;;;;;8.80;4.50;;;10.40;96.50;;;;;;5014011;28;20041;-76
2021/10/29 06:39:42;;;;;;;8.93;4.70;;;10.40;96.50;;;;;;5015468;28;20022;-77
2021/10/29 06:42:12;;;;;;;8.30;4.57;;;10.40;96.50;;;;;;5014192;28;20449;-76
2021/10/29 07:00:49;;;;;;;9.45;5.30;;;10.40;96.40;;;;;;5015081;28;20164;-76
2021/10/29 07:41:22;;;;;;;10.45;4.97;;;10.60;96.30;;;;;;5014582;28;20103;-74
2021/10/29 07:43:50;;;;;;;9.63;5.53;;;10.60;96.30;;;;;;5012559;28;20018;-74
2021/10/29 07:46:17;;;;;;;8.43;4.53;;;10.70;96.30;;;;;;5013956;28;20030;-75
2021/10/29 07:48:44;;;;;;;7.85;4.88;;;10.70;96.30;;;;;;5013173;28;20029;-74
2021/10/29 07:51:10;;;;;;;10.75;5.43;;;10.80;96.30;;;;;;5013557;28;20029;-75
2021/10/29 07:53:36;;;;;;;9.13;5.13;;;10.80;96.30;;;;;;5013970;28;20357;-74
2021/10/29 07:56:04;;;;;;;8.77;4.80;;;10.90;96.30;;;;;;5013969;28;20029;-75
2021/10/29 07:58:32;;;;;;;11.40;5.45;;;10.90;96.30;;;;;;5012637;28;20026;-75
2021/10/29 08:01:00;;;;;;;9.00;4.55;;;11.00;96.30;;;;;;5013727;28;20025;-74
2021/10/29 08:03:27;;;;;;;8.52;4.95;;;11.00;96.20;;;;;;5013742;28;20053;-75
2021/10/29 08:05:53;;;;;;;11.02;5.00;;;11.10;96.20;;;;;;5013536;28;20038;-75
2021/10/29 08:08:20;;;;;;;9.43;5.45;;;11.10;96.20;;;;;;5012598;28;20026;-75
2021/10/29 08:10:47;;;;;;;6.80;3.88;;;11.10;96.50;;;;;;5012893;28;20029;-75
2021/10/29 08:13:13;;;;;;;8.55;4.38;;;11.20;96.20;;;;;;5013487;28;20033;-75
2021/10/29 08:15:40;;;;;;;10.05;5.35;;;11.20;96.10;;;;;;5013527;28;20054;-75
2021/10/29 08:18:07;;;;;;;10.35;5.03;;;11.30;96.10;;;;;;5013511;28;20026;-75
2021/10/29 08:20:34;;;;;;;10.15;5.07;;;11.30;96.10;;;;;;5013409;28;20022;-75
2021/10/29 08:23:00;;;;;;;9.90;5.13;;;11.40;96.10;;;;;;5013439;28;20026;-75
2021/10/29 08:25:26;;;;;;;8.77;4.95;;;11.50;96.10;;;;;;5013339;28;20030;-75
2021/10/29 08:27:53;;;;;;;8.00;4.32;;;11.50;96.00;;;;;;5013388;28;20037;-76
2021/10/29 08:30:19;;;;;;;9.65;4.82;;;11.60;96.00;;;;;;5013171;28;20054;-76
2021/10/29 08:32:46;;;;;;;9.45;4.63;;;11.60;96.00;;;;;;5013632;28;20466;-75
2021/10/29 08:35:13;;;;;;;7.93;4.63;;;11.70;95.90;;;;;;5013544;28;20052;-75
2021/10/29 08:37:41;;;;;;;8.45;4.53;;;11.70;95.90;;;;;;5013435;28;20025;-75
2021/10/29 08:40:08;;;;;;;9.05;4.28;;;11.80;95.90;;;;;;5013200;28;20125;-75
2021/10/29 08:42:34;;;;;;;8.57;4.85;;;11.80;95.80;;;;;;5012146;28;20076;-75
2021/10/29 08:45:06;;;;;;;9.48;4.97;;;11.90;95.80;;;;;;5011764;28;20473;-74
2021/10/29 08:47:44;;;;;;;8.30;4.70;;;11.90;95.70;;;;;;5012293;28;20438;-75
2021/10/29 08:50:16;;;;;;;10.35;5.63;;;12.00;95.70;;;;;;5013361;28;20022;-75
2021/10/29 08:52:44;;;;;;;9.68;5.18;;;12.00;95.60;;;;;;5013077;28;20026;-75
2021/10/29 08:55:12;;;;;;;10.63;5.30;;;12.10;95.60;;;;;;5013052;28;20029;-76
2021/10/29 08:57:39;;;;;;;10.82;5.32;;;12.10;95.60;;;;;;5013003;28;20022;-76
2021/10/29 09:00:20;;;;;;;10.95;5.72;;;12.20;95.50;;;;;;5011973;28;20026;-75
2021/10/29 09:03:19;;;;;;;9.18;5.20;;;12.30;95.50;;;;;;5011876;28;20018;-76
2021/10/29 09:06:04;;;;;;;10.27;5.40;;;12.30;95.40;;;;;;5011772;28;20030;-76
2021/10/29 09:08:49;;;;;;;10.82;5.93;;;12.30;95.40;;;;;;5011992;28;20091;-75
2021/10/29 09:11:42;;;;;;;10.55;5.97;;;12.40;95.30;;;;;;5011888;28;20068;-76
2021/10/29 09:34:04;;;;;;;10.25;4.85;;;12.70;95.00;;;;;;5016888;28;20036;-76
2021/10/29 09:36:38;;;;;;;;;;;12.80;95.00;;;;;;5016542;28;20026;-76
2021/10/29 09:39:09;;;;;;;9.02;4.80;;;12.80;94.90;;;;;;5016404;28;19955;-75
2021/10/29 09:41:36;;;;;;;9.65;4.78;;;12.80;94.90;;;;;;5016337;28;20022;-75
2021/10/29 09:44:06;;;;;;;9.93;5.15;;;12.80;94.90;;;;;;5016258;28;20029;-76
2021/10/29 09:46:37;;;;;;;11.23;5.88;;;12.90;94.80;;;;;;5015266;28;20026;-76
2021/10/29 09:49:14;;;;;;;13.20;5.75;;;13.00;94.80;;;;;;5016233;28;20018;-76
2021/10/29 09:51:52;;;;;;;9.48;4.88;;;13.00;94.70;;;;;;5015164;28;20028;-76
2021/10/29 09:54:22;;;;;;;8.27;4.90;;;13.10;94.70;;;;;;5016005;28;20413;-76
2021/10/29 09:56:55;;;;;;;9.75;4.60;;;13.10;94.60;;;;;;5014772;28;20465;-76
2021/10/29 09:59:21;;;;;;;11.10;4.90;;;13.20;94.60;;;;;;5015822;28;20023;-76
2021/10/29 10:01:47;;;;;;;12.10;6.25;;;13.20;94.50;;;;;;5015837;28;20030;-77
2021/10/29 10:04:14;;;;;;;7.65;4.95;;;13.20;94.40;;;;;;5015416;28;20022;-76
2021/10/29 10:06:41;;;;;;;10.43;5.03;;;13.30;94.40;;;;;;5014884;28;20041;-77
2021/10/29 10:09:09;;;;;;;8.05;5.07;;;13.30;94.30;;;;;;5015923;28;20030;-76
2021/10/29 10:11:37;;;;;;;9.70;4.40;;;13.30;94.20;;;;;;5015893;28;20022;-76
2021/10/29 10:14:04;;;;;;;12.15;5.70;;;13.40;94.10;;;;;;5015598;28;20025;-75
2021/10/29 10:16:33;;;;;;;8.25;4.35;;;13.40;94.00;;;;;;5016239;28;20454;-75
2021/10/29 10:18:59;;;;;;;10.63;4.93;;;13.50;94.00;;;;;;5015613;28;20088;-75
2021/10/29 10:21:27;;;;;;;9.93;5.22;;;13.50;93.90;;;;;;5015983;28;20029;-75
2021/10/29 10:23:57;;;;;;;11.07;4.60;;;13.60;93.80;;;;;;5014100;28;20432;-75
2021/10/29 10:26:38;;;;;;;9.88;4.75;;;13.60;93.80;;;;;;5015899;28;20026;-75
2021/10/29 10:43:09;;;;;;;9.43;4.90;;;14.20;93.20;;;;;;5015692;28;20450;-75
2021/10/29 10:45:51;;;;;;;6.88;3.83;;;14.40;93.10;;;;;;5015515;28;20478;-75
2021/10/29 10:48:59;;;;;;;9.85;4.65;;;14.50;93.10;;;;;;5014080;28;20026;-75
2021/10/29 10:51:40;;;;;;;10.55;4.75;;;14.70;92.90;;;;;;5003610;28;20030;-75
2021/10/29 10:54:17;;;;;;;6.73;3.43;;;14.90;92.80;;;;;;5013915;28;20133;-76
2021/10/29 11:00:03;;;;;;;7.43;4.00;;;15.20;92.60;;;;;;5014820;28;20061;-75
2021/10/29 11:11:24;;;;;;;6.45;3.55;;;15.50;92.20;;;;;;5014652;28;20038;-75
2021/10/29 11:14:03;;;;;;;7.15;3.70;;;15.70;92.10;;;;;;5012348;28;20593;-76
2021/10/29 11:16:38;;;;;;;9.75;4.15;;;15.70;91.90;;;;;;5015063;28;20037;-76
2021/10/29 11:19:09;;;;;;;4.70;3.10;;;15.80;91.70;;;;;;5014267;28;20022;-75
2021/10/29 11:21:36;;;;;;;5.70;3.40;;;15.80;91.70;;;;;;5013365;28;20481;-75
2021/10/29 11:24:06;;;;;;;8.80;4.40;;;15.80;91.60;;;;;;5014366;28;20029;-76
2021/10/29 11:26:44;;;;;;;6.70;3.92;;;15.90;91.50;;;;;;5013593;28;20030;-76
2021/10/29 11:29:10;;;;;;;8.85;3.60;;;16.10;91.30;;;;;;5013952;28;20045;-75
2021/10/29 11:31:41;;;;;;;7.80;3.17;;;16.10;91.30;;;;;;5014814;28;20476;-75
2021/10/29 11:34:12;;;;;;;6.03;3.08;;;16.10;91.30;;;;;;5014321;28;20034;-76
2021/10/29 11:36:58;;;;;;;8.30;3.72;;;16.00;91.20;;;;;;5013551;28;20032;-76
2021/10/29 11:39:24;;;;;;;7.20;3.90;;;16.00;91.20;;;;;;5015216;28;20508;-78
2021/10/29 11:41:52;;;;;;;7.47;3.83;;;15.90;91.30;;;;;;5012846;28;20029;-76
2021/10/29 11:44:20;;;;;;;7.53;4.20;;;15.90;91.40;;;;;;5014346;28;20032;-75
2021/10/29 11:46:48;;;;;;;7.75;4.22;;;15.80;91.40;;;;;;5013990;28;20034;-76
2021/10/29 11:49:27;;;;;;;8.60;4.13;;;15.80;91.50;;;;;;5014345;28;20026;-76
2021/10/29 11:51:55;;;;;;;8.88;5.03;;;15.80;91.50;;;;;;5012876;28;20057;-75
2021/10/29 11:54:24;;;;;;;7.53;4.13;;;15.80;91.40;;;;;;5012528;28;20025;-76
2021/10/29 11:59:52;;;;;;;9.30;4.20;;;15.80;91.40;;;;;;5014639;28;20030;-76
2021/10/29 12:07:51;;;;;;;7.85;3.97;;;15.70;91.30;;;;;;5014240;28;20107;-76
2021/10/29 12:10:21;;;;;;;7.28;3.45;;;15.80;91.30;;;;;;5012361;28;20338;-76
2021/10/29 12:12:49;;;;;;;7.70;3.83;;;15.80;91.30;;;;;;5013585;28;20058;-76
2021/10/29 12:15:17;;;;;;;7.75;3.70;;;15.80;91.30;;;;;;5013574;28;20056;-76
2021/10/29 12:17:51;;;;;;;7.20;3.25;;;15.80;91.30;;;;;;5012137;28;20073;-76
2021/10/29 12:20:25;;;;;;;6.88;4.25;;;15.80;91.30;;;;;;5011880;28;20061;-76
2021/10/29 12:22:56;;;;;;;8.45;4.40;;;15.80;91.30;;;;;;5012724;28;20021;-76
2021/10/29 12:28:09;;;;;;;9.02;4.57;;;15.80;91.20;;;;;;5013044;28;20108;-76
2021/10/29 12:30:41;;;;;;;8.45;4.40;;;15.80;91.20;;;;;;5012263;28;20049;-75
2021/10/29 13:03:46;;;;;;;6.18;3.67;;;15.70;91.30;;;;;;5016821;28;20045;-76
2021/10/29 13:06:18;;;;;;;6.93;3.67;;;15.70;91.30;;;;;;5016875;28;20519;-76
2021/10/29 13:08:49;;;;;;;8.63;4.07;;;15.70;91.30;;;;;;5015532;28;20014;-76
2021/10/29 13:11:16;;;;;;;9.30;4.25;;;15.70;91.30;;;;;;5017610;28;20072;-76
2021/10/29 13:13:54;;;;;;;8.13;3.83;;;15.70;91.40;;;;;;5015488;28;20409;-76
2021/10/29 13:16:20;;;;;;;5.65;3.42;;;15.70;91.40;;;;;;5015833;28;20119;-76
2021/10/29 13:19:09;;;;;;;8.60;3.80;;;15.60;91.40;;;;;;5016684;28;20449;-76
2021/10/29 13:24:46;;;;;;;6.03;3.22;;;15.60;91.50;;;;;;5017305;28;20040;-75
2021/10/29 13:51:28;;;;;;;10.98;3.92;;;15.50;91.60;;;;;;5015911;28;20105;-74
2021/10/29 13:54:03;;;;;;;6.97;3.50;;;15.50;91.60;;;;;;5015094;28;20030;-75
2021/10/29 13:56:53;;;;;;;6.57;3.67;;;15.50;91.60;;;;;;5016127;28;20018;-76
2021/10/29 13:59:38;;;;;;;8.27;3.08;;;15.50;91.60;;;;;;5016115;28;20044;-75
2021/10/29 14:29:35;;;;;;;6.85;3.92;;;15.40;91.80;;;;;;5015382;28;20109;-75
2021/10/29 14:32:14;;;;;;;8.55;3.70;;;15.40;91.90;;;;;;5015947;28;20018;-75
2021/10/29 14:34:50;;;;;;;6.93;3.40;;;15.40;91.90;;;;;;5014407;28;20024;-75
2021/10/29 14:37:25;;;;;;;8.07;4.03;;;15.40;91.90;;;;;;5015539;28;20025;-75
2021/10/29 14:47:35;;;;;;;7.28;3.28;;;15.30;92.10;;;;;;5015294;28;20082;-76
2021/10/29 14:53:13;;;;;;;5.35;3.00;;;15.20;92.20;;;;;;5015920;28;20204;-75
2021/10/29 15:31:23;;;;;;;7.38;3.30;;;15.00;93.00;;;;;;5014554;28;20112;-76
2021/10/29 15:46:39;;;;;;;6.65;2.78;;;15.10;93.00;;;;;;5014682;28;20057;-74
2021/10/29 15:51:32;;;;;;;6.13;3.15;;;15.10;93.00;;;;;;5013972;28;20033;-75
2021/10/29 15:54:03;;;;;;;6.68;3.25;;;15.10;93.00;;;;;;5013906;28;20124;-75
2021/10/29 15:56:41;;;;;;;;;;;15.10;93.10;;;;;;5014854;28;20025;-75
2021/10/29 16:17:47;;;;;;;6.25;2.85;;;15.10;93.10;;;;;;5014112;28;20111;-75
2021/10/29 16:20:13;;;;;;;4.47;2.58;;;15.10;93.10;;;;;;5013390;28;20018;-74
2021/10/29 16:22:38;;;;;;;6.03;3.08;;;15.10;93.20;;;;;;5012109;28;20030;-75
2021/10/29 16:25:09;;;;;;;5.93;3.00;;;15.10;93.20;;;;;;5012010;28;20030;-75
2021/10/29 16:30:14;;;;;;;6.38;3.33;;;15.10;93.20;;;;;;5013281;28;20183;-75
2021/10/29 16:33:40;;;;;;;5.28;2.75;;;15.20;93.20;;;;;;5013358;28;20025;-75
2021/10/29 16:35:39;;;;;;;6.90;2.88;;;15.20;93.20;;;;;;5004730;28;20029;-75
2021/10/29 16:38:07;;;;;;;4.65;2.58;;;15.20;93.20;;;;;;5014174;28;20030;-75
2021/10/29 16:40:34;;;;;;;4.45;2.70;;;15.20;93.20;;;;;;5011983;28;20046;-75
2021/10/29 16:43:00;;;;;;;4.10;2.20;;;15.20;93.20;;;;;;5013408;28;20026;-78
2021/10/29 16:45:27;;;;;;;5.75;2.47;;;15.20;93.20;;;;;;5011717;28;20111;-75
2021/10/29 16:47:53;;;;;;;4.65;2.50;;;15.10;93.30;;;;;;5012106;28;20096;-76
2021/10/29 16:50:20;;;;;;;5.63;2.63;;;14.90;93.60;;;;;;5011932;28;20022;-76
2021/10/29 16:52:47;;;;;;;3.67;2.45;;;14.60;94.10;;;;;;5012137;28;20029;-76
2021/10/29 16:55:13;;;;;;;4.72;2.35;;;14.40;94.60;;;;;;5011723;28;20026;-76
2021/10/29 16:57:39;;;;;;;4.75;2.33;;;14.30;94.90;;;;;;5013692;28;20033;-76
2021/10/29 17:00:07;;;;;;;3.80;2.28;;;14.20;95.20;;;;;;5013306;28;20026;-76
2021/10/29 17:02:33;;;;;;;4.68;2.45;;;14.10;95.50;;;;;;5013286;28;20481;-76
2021/10/29 17:04:59;;;;;;;4.53;2.50;;;14.10;95.90;;;;;;5012814;28;20026;-77
2021/10/29 17:07:24;;;;;;;5.22;2.63;;;14.00;96.30;;;;;;5011961;28;20446;-75
2021/10/29 17:09:51;;;;;;;4.60;2.33;;;14.00;96.70;;;;;;5012936;28;20019;-75
2021/10/29 17:12:18;;;;;;;5.20;2.85;;;14.00;96.90;;;;;;5011738;28;20033;-77
2021/10/29 17:14:43;;;;;;;6.15;3.05;;;13.90;97.10;;;;;;5012497;28;20353;-74
2021/10/29 17:17:09;;;;;;;7.93;3.25;;;13.90;97.20;;;;;;5012987;28;20539;-74
2021/10/29 17:19:35;;;;;;;5.15;2.90;;;13.90;97.30;;;;;;5012395;28;20124;-77
2021/10/29 17:22:01;;;;;;;6.55;3.05;;;13.90;97.40;;;;;;5011876;28;20457;-74
2021/10/29 17:24:27;;;;;;;6.15;2.67;;;14.00;97.50;;;;;;5011799;28;20030;-75
2021/10/29 17:26:53;;;;;;;5.30;2.85;;;13.90;97.60;;;;;;5011463;28;20026;-76
2021/10/29 17:29:21;;;;;;;5.25;3.03;;;13.90;97.90;;;;;;5012471;28;20049;-76
2021/10/29 17:31:47;;;;;;;6.97;3.25;;;13.90;97.90;;;;;;5011183;28;20113;-75
2021/10/29 17:34:12;;;;;;;5.13;2.70;;;13.90;98.10;;;;;;5012769;28;20014;-76
2021/10/29 17:36:38;;;;;;;4.97;3.28;;;13.80;98.30;;;;;;5013266;28;20048;-76
2021/10/29 17:39:04;;;;;;;4.93;3.00;;;13.80;98.40;;;;;;5011149;28;20433;-76
2021/10/29 17:41:30;;;;;;;6.25;2.90;;;13.80;98.50;;;;;;5012422;28;20109;-76